createdAt,value
2018-08-17T00:00:49.019Z,18.30
2018-08-17T00:03:17.166Z,17.90
2018-08-17T00:05:45.329Z,17.70
2018-08-17T00:08:13.482Z,17.70
2018-08-17T00:10:41.702Z,17.90
2018-08-17T00:13:09.866Z,17.80
2018-08-17T00:15:38.058Z,17.80
2018-08-17T00:18:06.197Z,17.60
2018-08-17T00:20:34.342Z,17.40
2018-08-17T00:23:02.482Z,17.40
2018-08-17T00:25:30.642Z,17.20
2018-08-17T00:27:58.865Z,17.00
2018-08-17T00:30:27.054Z,17.20
2018-08-17T00:32:55.254Z,17.10
2018-08-17T00:35:23.506Z,17.50
2018-08-17T00:37:51.754Z,18.00
2018-08-17T00:40:19.935Z,18.40
2018-08-17T00:42:48.129Z,18.80
2018-08-17T00:45:16.314Z,18.90
2018-08-17T00:47:44.487Z,19.00
2018-08-17T00:50:12.727Z,19.00
2018-08-17T00:52:40.908Z,18.60
2018-08-17T00:55:09.114Z,18.50
2018-08-17T00:57:37.345Z,18.60
2018-08-17T01:00:06.108Z,18.70
2018-08-17T01:02:34.303Z,18.70
2018-08-17T01:05:02.490Z,18.90
2018-08-17T01:07:30.733Z,18.60
2018-08-17T01:09:58.923Z,18.70
2018-08-17T01:12:27.113Z,18.20
2018-08-17T01:14:55.292Z,17.90
2018-08-17T01:17:23.479Z,17.70
2018-08-17T01:19:51.671Z,17.20
2018-08-17T01:22:19.876Z,17.00
2018-08-17T01:24:48.054Z,16.90
2018-08-17T01:27:16.251Z,16.90
2018-08-17T01:29:44.443Z,16.90
2018-08-17T01:32:12.646Z,16.70
2018-08-17T01:34:40.838Z,16.80
2018-08-17T01:37:09.060Z,16.80
2018-08-17T01:39:37.234Z,16.60
2018-08-17T01:42:05.473Z,16.50
2018-08-17T01:44:33.644Z,16.50
2018-08-17T01:47:01.840Z,16.50
2018-08-17T01:49:30.030Z,16.50
2018-08-17T01:51:58.195Z,16.40
2018-08-17T01:54:26.378Z,16.30
2018-08-17T01:56:54.581Z,16.30
2018-08-17T01:59:22.791Z,16.60
2018-08-17T02:01:51.013Z,16.40
2018-08-17T02:04:19.194Z,16.30
2018-08-17T02:06:47.437Z,16.20
2018-08-17T02:09:15.626Z,16.20
2018-08-17T02:11:43.902Z,16.10
2018-08-17T02:14:12.106Z,16.90
2018-08-17T02:16:40.726Z,17.10
2018-08-17T02:19:09.128Z,17.30
2018-08-17T02:21:37.329Z,17.40
2018-08-17T02:24:05.518Z,17.60
2018-08-17T02:26:33.697Z,17.60
2018-08-17T02:29:01.914Z,17.80
2018-08-17T02:31:30.122Z,17.60
2018-08-17T02:33:58.286Z,17.30
2018-08-17T02:36:26.471Z,17.60
2018-08-17T02:38:54.646Z,17.60
2018-08-17T02:41:22.823Z,17.60
2018-08-17T02:43:51.011Z,17.50
2018-08-17T02:46:19.196Z,17.60
2018-08-17T02:48:47.358Z,16.80
2018-08-17T02:51:15.565Z,16.60
2018-08-17T02:53:43.749Z,17.20
2018-08-17T02:56:11.950Z,17.50
2018-08-17T02:58:40.146Z,17.70
2018-08-17T03:01:08.333Z,17.70
2018-08-17T03:03:36.499Z,17.70
2018-08-17T03:06:04.748Z,16.80
2018-08-17T03:08:32.952Z,16.80
2018-08-17T03:11:01.113Z,16.80
2018-08-17T03:13:29.329Z,16.90
2018-08-17T03:15:57.468Z,17.20
2018-08-17T03:18:25.687Z,17.40
2018-08-17T03:20:53.835Z,17.60
2018-08-17T03:23:22.032Z,17.50
2018-08-17T03:25:50.259Z,17.10
2018-08-17T03:28:18.440Z,16.90
2018-08-17T03:30:46.623Z,16.30
2018-08-17T03:33:14.770Z,16.00
2018-08-17T03:35:42.957Z,15.90
2018-08-17T03:38:11.306Z,15.90
2018-08-17T03:40:39.306Z,15.70
2018-08-17T03:43:07.554Z,15.80
2018-08-17T03:45:35.799Z,16.40
2018-08-17T03:48:03.958Z,16.30
2018-08-17T03:50:32.110Z,15.70
2018-08-17T03:53:00.357Z,15.80
2018-08-17T03:55:28.501Z,15.90
2018-08-17T03:57:56.650Z,15.90
2018-08-17T04:00:24.795Z,15.60
2018-08-17T04:02:52.975Z,15.30
2018-08-17T04:05:21.174Z,15.20
2018-08-17T04:07:49.333Z,15.20
2018-08-17T04:10:17.485Z,15.30
2018-08-17T04:12:45.698Z,15.40
2018-08-17T04:15:13.842Z,15.20
2018-08-17T04:17:42.091Z,15.10
2018-08-17T04:20:10.241Z,15.10
2018-08-17T04:22:38.410Z,15.00
2018-08-17T04:25:06.567Z,15.00
2018-08-17T04:27:34.773Z,15.10
2018-08-17T04:30:03.009Z,15.00
2018-08-17T04:32:31.160Z,14.90
2018-08-17T04:34:59.331Z,14.90
2018-08-17T04:37:27.555Z,15.00
2018-08-17T04:39:55.790Z,15.00
2018-08-17T04:42:24.024Z,15.10
2018-08-17T04:44:52.232Z,15.20
2018-08-17T04:47:20.517Z,15.20
2018-08-17T04:49:48.738Z,15.10
2018-08-17T04:52:17.009Z,15.00
2018-08-17T04:54:45.202Z,15.10
2018-08-17T04:57:13.597Z,15.10
2018-08-17T04:59:41.769Z,15.20
2018-08-17T05:02:10.035Z,15.80
2018-08-17T05:04:38.245Z,16.20
2018-08-17T05:07:06.430Z,16.10
2018-08-17T05:09:34.606Z,16.20
2018-08-17T05:12:02.770Z,16.50
2018-08-17T05:14:30.958Z,16.80
2018-08-17T05:16:59.117Z,16.40
2018-08-17T05:19:27.289Z,16.40
2018-08-17T05:21:55.433Z,16.40
2018-08-17T05:24:23.605Z,16.60
2018-08-17T05:26:52.467Z,17.00
2018-08-17T05:29:20.634Z,17.30
2018-08-17T05:31:48.807Z,17.50
2018-08-17T05:34:16.954Z,17.70
2018-08-17T05:36:45.179Z,17.80
2018-08-17T05:39:13.367Z,18.00
2018-08-17T05:41:41.587Z,18.10
2018-08-17T05:44:09.833Z,18.30
2018-08-17T05:46:38.017Z,18.70
2018-08-17T05:49:06.475Z,19.10
2018-08-17T05:51:34.816Z,19.60
2018-08-17T05:54:03.029Z,20.10
2018-08-17T05:56:31.225Z,20.50
2018-08-17T05:58:59.467Z,20.90
2018-08-17T06:01:27.736Z,21.30
2018-08-17T06:03:55.961Z,20.80
2018-08-17T06:06:24.210Z,19.70
2018-08-17T06:08:52.465Z,20.10
2018-08-17T06:11:20.860Z,20.10
2018-08-17T06:13:48.917Z,19.30
2018-08-17T06:16:17.318Z,19.40
2018-08-17T06:18:45.477Z,19.50
2018-08-17T06:21:13.676Z,19.80
2018-08-17T06:23:41.955Z,20.90
2018-08-17T06:26:10.185Z,21.40
2018-08-17T06:28:39.288Z,21.90
2018-08-17T06:31:07.500Z,23.00
2018-08-17T06:33:35.722Z,23.70
2018-08-17T06:36:03.975Z,24.00
2018-08-17T06:38:32.291Z,24.40
2018-08-17T06:41:00.499Z,24.00
2018-08-17T06:43:28.783Z,24.00
2018-08-17T06:45:57.029Z,24.20
2018-08-17T06:48:25.334Z,24.10
2018-08-17T06:50:53.622Z,23.80
2018-08-17T06:53:21.771Z,23.40
2018-08-17T06:55:50.002Z,23.30
2018-08-17T06:58:18.179Z,23.60
2018-08-17T07:00:46.402Z,23.70
2018-08-17T07:03:14.574Z,23.90
2018-08-17T07:05:42.861Z,24.10
2018-08-17T07:08:12.160Z,23.70
2018-08-17T07:10:40.411Z,24.40
2018-08-17T07:13:08.658Z,24.70
2018-08-17T07:15:36.861Z,25.00
2018-08-17T07:18:05.138Z,25.40
2018-08-17T07:20:33.401Z,25.70
2018-08-17T07:23:01.602Z,25.60
2018-08-17T07:25:30.772Z,26.20
2018-08-17T07:28:05.533Z,26.30
2018-08-17T07:30:33.763Z,26.30
2018-08-17T07:33:02.014Z,25.00
2018-08-17T07:35:30.244Z,23.30
2018-08-17T07:37:58.448Z,24.20
2018-08-17T07:40:26.601Z,24.20
2018-08-17T07:42:54.838Z,23.60
2018-08-17T07:45:23.014Z,24.40
2018-08-17T07:47:51.339Z,24.80
2018-08-17T07:50:21.021Z,24.50
2018-08-17T07:52:49.314Z,24.50
2018-08-17T07:55:17.474Z,23.80
2018-08-17T07:57:45.634Z,23.60
2018-08-17T08:00:14.130Z,24.10
2018-08-17T08:02:42.329Z,24.50
2018-08-17T08:05:11.398Z,24.60
2018-08-17T08:07:39.984Z,24.60
2018-08-17T08:10:08.874Z,24.60
2018-08-17T08:12:37.139Z,24.70
2018-08-17T08:15:05.616Z,24.50
2018-08-17T08:17:33.802Z,24.50
2018-08-17T08:20:13.523Z,25.20
2018-08-17T08:22:41.721Z,25.60
2018-08-17T08:25:09.981Z,25.00
2018-08-17T08:27:38.153Z,25.20
2018-08-17T08:30:06.957Z,25.20
2018-08-17T08:32:35.286Z,25.20
2018-08-17T08:35:03.286Z,25.10
2018-08-17T08:37:31.449Z,25.10
2018-08-17T08:39:59.719Z,25.90
2018-08-17T08:42:27.918Z,25.90
2018-08-17T08:44:56.171Z,25.80
2018-08-17T08:47:24.369Z,26.50
2018-08-17T08:49:52.586Z,26.20
2018-08-17T08:52:20.819Z,26.30
2018-08-17T08:54:49.006Z,26.80
2018-08-17T08:57:17.194Z,26.60
2018-08-17T08:59:45.382Z,26.40
2018-08-17T09:02:13.575Z,27.50
2018-08-17T09:04:41.848Z,26.80
2018-08-17T09:07:10.050Z,25.90
2018-08-17T09:09:38.269Z,26.20
2018-08-17T09:12:06.413Z,25.90
2018-08-17T09:14:34.618Z,26.60
2018-08-17T09:17:02.795Z,26.50
2018-08-17T09:19:30.971Z,27.20
2018-08-17T09:21:59.250Z,28.10
2018-08-17T09:24:27.488Z,28.00
2018-08-17T09:26:55.686Z,29.10
2018-08-17T09:29:23.917Z,28.90
2018-08-17T09:31:52.119Z,28.40
2018-08-17T09:34:20.310Z,28.50
2018-08-17T09:36:48.512Z,28.70
2018-08-17T09:39:16.713Z,28.30
2018-08-17T09:41:44.981Z,28.00
2018-08-17T09:44:13.139Z,28.90
2018-08-17T09:46:41.440Z,29.90
2018-08-17T09:49:09.670Z,29.10
2018-08-17T09:51:37.895Z,28.30
2018-08-17T09:54:07.246Z,28.80
2018-08-17T09:56:35.462Z,28.50
2018-08-17T09:59:03.883Z,28.00
2018-08-17T10:01:37.554Z,28.30
2018-08-17T10:04:11.223Z,29.60
2018-08-17T10:06:44.883Z,29.00
2018-08-17T10:09:19.248Z,29.50
2018-08-17T10:11:49.287Z,29.00
2018-08-17T10:14:17.678Z,30.60
2018-08-17T10:16:46.209Z,31.20
2018-08-17T10:19:14.415Z,30.00
2018-08-17T10:21:51.577Z,29.60
2018-08-17T10:24:19.830Z,29.20
2018-08-17T10:26:49.036Z,29.70
2018-08-17T10:29:17.262Z,29.10
2018-08-17T10:31:46.204Z,30.50
2018-08-17T10:34:14.448Z,32.10
2018-08-17T10:36:43.361Z,32.10
2018-08-17T10:39:11.553Z,32.00
2018-08-17T10:41:40.649Z,32.20
2018-08-17T10:44:09.289Z,30.90
2018-08-17T10:46:37.528Z,30.40
2018-08-17T10:49:06.185Z,31.20
2018-08-17T10:51:34.430Z,31.60
2018-08-17T10:54:02.647Z,30.60
2018-08-17T10:56:30.905Z,31.40
2018-08-17T10:58:59.158Z,31.10
2018-08-17T11:01:27.356Z,31.30
2018-08-17T11:03:55.546Z,31.10
2018-08-17T11:06:23.793Z,30.30
2018-08-17T11:08:52.033Z,31.30
2018-08-17T11:11:20.245Z,32.20
2018-08-17T11:13:48.484Z,31.60
2018-08-17T11:16:16.710Z,31.10
2018-08-17T11:18:44.986Z,31.00
2018-08-17T11:21:13.210Z,33.40
2018-08-17T11:23:41.394Z,32.50
2018-08-17T11:26:09.709Z,34.60
2018-08-17T11:28:37.933Z,34.10
2018-08-17T11:31:06.146Z,35.40
2018-08-17T11:33:34.496Z,36.20
2018-08-17T11:36:02.714Z,36.70
2018-08-17T11:38:30.974Z,35.80
2018-08-17T11:40:59.161Z,34.20
2018-08-17T11:43:27.398Z,33.50
2018-08-17T11:45:55.646Z,35.20
2018-08-17T11:48:29.280Z,36.50
2018-08-17T11:50:57.542Z,37.30
2018-08-17T11:53:25.786Z,35.30
2018-08-17T11:55:54.006Z,33.30
2018-08-17T11:58:22.209Z,34.70
2018-08-17T12:00:50.465Z,32.40
2018-08-17T12:03:18.670Z,34.70
2018-08-17T12:05:46.894Z,36.00
2018-08-17T12:08:15.214Z,36.90
2018-08-17T12:10:44.417Z,35.80
2018-08-17T12:13:17.633Z,33.60
2018-08-17T12:15:51.268Z,33.00
2018-08-17T12:18:19.540Z,31.80
2018-08-17T12:20:47.789Z,32.30
2018-08-17T12:23:16.042Z,32.60
2018-08-17T12:25:54.657Z,33.20
2018-08-17T12:28:24.217Z,34.80
2018-08-17T12:30:52.417Z,33.40
2018-08-17T12:33:20.666Z,33.40
2018-08-17T12:35:48.940Z,34.20
2018-08-17T12:38:18.115Z,33.10
2018-08-17T12:40:52.117Z,34.40
2018-08-17T12:43:24.089Z,33.70
2018-08-17T12:45:52.338Z,34.10
2018-08-17T12:48:20.588Z,34.90
2018-08-17T12:50:48.790Z,33.00
2018-08-17T12:53:17.037Z,32.00
2018-08-17T12:55:45.302Z,32.70
2018-08-17T12:58:14.265Z,32.80
2018-08-17T13:00:42.562Z,32.00
2018-08-17T13:03:10.877Z,32.30
2018-08-17T13:05:39.060Z,32.20
2018-08-17T13:08:08.222Z,32.20
2018-08-17T13:10:36.589Z,30.70
2018-08-17T13:13:05.852Z,30.70
2018-08-17T13:15:34.388Z,31.10
2018-08-17T13:18:09.232Z,31.50
2018-08-17T13:20:37.714Z,31.90
2018-08-17T13:23:06.063Z,31.80
2018-08-17T13:25:34.178Z,32.20
2018-08-17T13:28:02.407Z,32.40
2018-08-17T13:30:30.619Z,31.30
2018-08-17T13:32:58.849Z,30.40
2018-08-17T13:35:27.063Z,30.50
2018-08-17T13:37:55.303Z,30.90
2018-08-17T13:40:23.474Z,31.60
2018-08-17T13:42:51.687Z,30.30
2018-08-17T13:45:19.879Z,29.90
2018-08-17T13:47:48.149Z,29.80
2018-08-17T13:50:16.429Z,30.20
2018-08-17T13:52:44.666Z,30.20
2018-08-17T13:55:12.919Z,30.10
2018-08-17T13:57:41.131Z,30.60
2018-08-17T14:00:10.405Z,30.30
2018-08-17T14:02:38.620Z,29.50
2018-08-17T14:05:07.841Z,29.80
2018-08-17T14:07:36.104Z,30.50
2018-08-17T14:10:04.748Z,31.20
2018-08-17T14:12:32.908Z,30.30
2018-08-17T14:15:01.204Z,29.60
2018-08-17T14:17:29.374Z,29.10
2018-08-17T14:19:57.582Z,29.30
2018-08-17T14:22:25.892Z,29.50
2018-08-17T14:24:53.984Z,29.50
2018-08-17T14:27:22.165Z,29.30
2018-08-17T14:29:50.369Z,29.30
2018-08-17T14:32:18.558Z,29.30
2018-08-17T14:34:46.744Z,29.40
2018-08-17T14:37:14.946Z,29.50
2018-08-17T14:39:43.157Z,29.10
2018-08-17T14:42:11.354Z,28.60
2018-08-17T14:44:39.617Z,28.30
2018-08-17T14:47:07.808Z,28.10
2018-08-17T14:49:36.029Z,28.00
2018-08-17T14:52:04.241Z,28.20
2018-08-17T14:54:32.479Z,28.00
2018-08-17T14:57:00.670Z,28.20
2018-08-17T14:59:28.895Z,28.50
2018-08-17T15:01:57.126Z,28.80
2018-08-17T15:04:25.383Z,29.00
2018-08-17T15:06:53.590Z,29.30
2018-08-17T15:09:21.872Z,29.10
2018-08-17T15:11:50.051Z,29.00
2018-08-17T15:14:18.316Z,29.00
2018-08-17T15:16:46.562Z,29.20
2018-08-17T15:19:14.776Z,28.80
2018-08-17T15:21:42.955Z,29.10
2018-08-17T15:24:11.787Z,28.90
2018-08-17T15:26:40.134Z,28.30
2018-08-17T15:29:08.286Z,28.30
2018-08-17T15:31:36.526Z,28.00
2018-08-17T15:34:04.802Z,27.90
2018-08-17T15:36:33.034Z,27.60
2018-08-17T15:39:01.310Z,27.80
2018-08-17T15:41:29.592Z,27.90
2018-08-17T15:43:57.749Z,27.80
2018-08-17T15:46:25.987Z,27.80
2018-08-17T15:49:00.590Z,27.80
2018-08-17T15:51:28.820Z,27.90
2018-08-17T15:53:56.993Z,28.10
2018-08-17T15:56:25.202Z,28.00
2018-08-17T15:58:53.448Z,27.70
2018-08-17T16:01:21.721Z,27.60
2018-08-17T16:03:49.988Z,27.70
2018-08-17T16:06:18.186Z,27.50
2018-08-17T16:08:46.424Z,27.60
2018-08-17T16:11:14.746Z,27.60
2018-08-17T16:13:42.967Z,27.50
2018-08-17T16:16:11.290Z,27.60
2018-08-17T16:18:39.538Z,27.50
2018-08-17T16:21:07.749Z,27.60
2018-08-17T16:23:35.954Z,27.80
2018-08-17T16:26:04.214Z,27.70
2018-08-17T16:28:32.378Z,27.70
2018-08-17T16:31:00.638Z,27.60
2018-08-17T16:33:28.878Z,27.60
2018-08-17T16:35:57.166Z,27.40
2018-08-17T16:38:25.389Z,27.50
2018-08-17T16:40:53.880Z,27.60
2018-08-17T16:43:25.354Z,27.10
2018-08-17T16:45:53.673Z,27.10
2018-08-17T16:48:22.255Z,27.20
2018-08-17T16:50:50.602Z,27.10
2018-08-17T16:53:18.835Z,27.00
2018-08-17T16:55:47.051Z,27.00
2018-08-17T16:58:15.285Z,26.80
2018-08-17T17:00:43.633Z,26.90
2018-08-17T17:03:11.751Z,27.00
2018-08-17T17:05:40.027Z,26.60
2018-08-17T17:08:08.304Z,26.50
2018-08-17T17:10:36.514Z,26.50
2018-08-17T17:13:04.788Z,26.40
2018-08-17T17:15:33.041Z,26.30
2018-08-17T17:18:06.530Z,25.90
2018-08-17T17:20:36.036Z,25.70
2018-08-17T17:23:06.151Z,26.00
2018-08-17T17:25:34.386Z,25.70
2018-08-17T17:28:02.617Z,25.60
2018-08-17T17:30:40.080Z,25.90
2018-08-17T17:33:08.598Z,25.80
2018-08-17T17:35:37.585Z,25.90
2018-08-17T17:38:05.873Z,25.70
2018-08-17T17:40:34.079Z,24.90
2018-08-17T17:43:02.386Z,24.90
2018-08-17T17:45:30.632Z,24.20
2018-08-17T17:47:59.806Z,24.10
2018-08-17T17:50:28.018Z,23.90
2018-08-17T17:52:56.229Z,24.00
2018-08-17T17:55:25.437Z,23.90
2018-08-17T17:57:54.213Z,24.00
2018-08-17T18:00:22.418Z,23.90
2018-08-17T18:02:50.619Z,23.90
2018-08-17T18:05:19.689Z,23.80
2018-08-17T18:07:48.962Z,23.60
2018-08-17T18:10:23.941Z,23.40
2018-08-17T18:12:52.166Z,23.50
2018-08-17T18:17:54.849Z,23.80
2018-08-17T18:20:23.037Z,23.50
2018-08-17T18:22:51.260Z,23.20
2018-08-17T18:25:19.468Z,22.90
2018-08-17T18:27:48.848Z,22.80
2018-08-17T18:30:17.065Z,23.20
2018-08-17T18:32:45.742Z,22.70
2018-08-17T18:35:14.051Z,22.70
2018-08-17T18:37:42.246Z,22.70
2018-08-17T18:40:11.629Z,22.60
2018-08-17T18:42:39.883Z,22.40
2018-08-17T18:45:08.281Z,22.60
2018-08-17T18:47:36.729Z,22.30
2018-08-17T18:50:05.778Z,22.20
2018-08-17T18:52:34.111Z,22.00
2018-08-17T18:55:02.282Z,21.80
2018-08-17T18:57:30.419Z,21.50
2018-08-17T18:59:58.638Z,21.20
2018-08-17T19:02:26.865Z,21.40
2018-08-17T19:04:55.120Z,21.20
2018-08-17T19:07:23.335Z,21.00
2018-08-17T19:09:51.497Z,21.00
2018-08-17T19:12:19.674Z,20.90
2018-08-17T19:14:49.827Z,20.90
2018-08-17T19:17:23.493Z,20.90
2018-08-17T19:19:52.516Z,21.00
2018-08-17T19:22:21.509Z,21.20
2018-08-17T19:24:50.803Z,21.10
2018-08-17T19:27:28.173Z,21.00
2018-08-17T19:29:56.401Z,21.00
2018-08-17T19:32:24.683Z,21.20
2018-08-17T19:34:52.885Z,20.70
2018-08-17T19:37:21.081Z,20.50
2018-08-17T19:39:49.298Z,20.40
2018-08-17T19:42:17.520Z,19.80
2018-08-17T19:44:45.801Z,19.90
2018-08-17T19:47:14.043Z,19.40
2018-08-17T19:49:42.267Z,19.00
2018-08-17T19:52:10.437Z,18.80
2018-08-17T19:54:38.675Z,18.70
2018-08-17T19:57:06.933Z,18.80
2018-08-17T19:59:35.127Z,19.10
2018-08-17T20:02:03.383Z,18.80
2018-08-17T20:04:31.559Z,18.90
2018-08-17T20:07:00.113Z,19.20
2018-08-17T20:09:28.318Z,19.40
2018-08-17T20:11:56.481Z,18.90
2018-08-17T20:14:24.704Z,18.70
2018-08-17T20:16:52.876Z,18.70
2018-08-17T20:19:21.042Z,18.70
2018-08-17T20:21:49.210Z,18.60
2018-08-17T20:24:17.385Z,18.70
2018-08-17T20:26:45.967Z,18.90
2018-08-17T20:29:13.932Z,18.80
2018-08-17T20:31:43.690Z,19.30
2018-08-17T20:34:11.926Z,19.40
2018-08-17T20:36:40.315Z,18.90
2018-08-17T20:39:13.329Z,18.60
2018-08-17T20:41:41.544Z,18.60
2018-08-17T20:44:09.800Z,18.40
2018-08-17T20:46:38.053Z,18.60
2018-08-17T20:49:06.283Z,18.60
2018-08-17T20:51:35.797Z,18.80
2018-08-17T20:54:04.010Z,18.90
2018-08-17T20:56:32.305Z,19.20
2018-08-17T20:59:00.530Z,19.50
2018-08-17T21:01:28.766Z,19.50
2018-08-17T21:03:57.490Z,19.60
2018-08-17T21:06:25.706Z,19.70
2018-08-17T21:08:53.901Z,19.70
2018-08-17T21:11:22.192Z,19.20
2018-08-17T21:13:50.401Z,19.30
2018-08-17T21:16:18.599Z,19.40
2018-08-17T21:18:46.872Z,19.50
2018-08-17T21:21:15.092Z,19.40
2018-08-17T21:23:43.339Z,19.30
2018-08-17T21:26:11.565Z,19.50
2018-08-17T21:28:39.917Z,19.40
2018-08-17T21:31:08.102Z,19.60
2018-08-17T21:33:37.301Z,19.50
2018-08-17T21:36:05.470Z,19.20
2018-08-17T21:38:33.699Z,18.40
2018-08-17T21:41:01.982Z,18.50
2018-08-17T21:43:30.176Z,18.30
2018-08-17T21:46:03.083Z,18.60
2018-08-17T21:48:31.382Z,18.90
2018-08-17T21:50:59.609Z,18.90
2018-08-17T21:53:27.867Z,19.10
2018-08-17T21:55:56.094Z,19.30
2018-08-17T21:58:24.291Z,19.40
2018-08-17T22:00:52.514Z,19.40
2018-08-17T22:03:31.182Z,19.50
2018-08-17T22:05:59.514Z,19.10
2018-08-17T22:08:27.760Z,19.20
2018-08-17T22:10:55.947Z,18.50
2018-08-17T22:13:31.491Z,18.50
2018-08-17T22:16:00.225Z,18.40
2018-08-17T22:18:29.070Z,17.70
2018-08-17T22:20:57.826Z,17.60
2018-08-17T22:23:28.019Z,17.50
2018-08-17T22:25:56.349Z,17.50
2018-08-17T22:28:24.571Z,17.90
2018-08-17T22:30:52.800Z,18.20
2018-08-17T22:33:21.019Z,18.50
2018-08-17T22:35:49.329Z,18.70
2018-08-17T22:38:17.471Z,18.80
2018-08-17T22:40:45.714Z,18.80
2018-08-17T22:43:13.921Z,18.90
2018-08-17T22:45:42.142Z,18.20
2018-08-17T22:48:10.625Z,17.30
2018-08-17T22:50:38.822Z,17.00
2018-08-17T22:53:07.078Z,17.40
2018-08-17T22:55:35.303Z,17.80
2018-08-17T22:58:03.492Z,18.00
2018-08-17T23:00:31.755Z,18.30
2018-08-17T23:03:01.152Z,17.70
2018-08-17T23:05:33.901Z,17.10
2018-08-17T23:08:02.217Z,17.00
2018-08-17T23:10:30.454Z,16.90
2018-08-17T23:12:58.896Z,17.40
2018-08-17T23:15:27.141Z,17.80
2018-08-17T23:17:56.469Z,18.10
2018-08-17T23:20:30.095Z,17.90
2018-08-17T23:22:59.782Z,18.10
2018-08-17T23:25:34.693Z,18.20
2018-08-17T23:28:02.870Z,18.40
2018-08-17T23:30:31.098Z,18.30
2018-08-17T23:32:59.278Z,18.20
2018-08-17T23:35:27.495Z,18.40
2018-08-17T23:37:55.686Z,18.00
2018-08-17T23:40:23.902Z,18.00
2018-08-17T23:42:52.115Z,18.10
2018-08-17T23:45:20.335Z,18.30
2018-08-17T23:47:48.561Z,17.80
2018-08-17T23:50:17.254Z,17.90
2018-08-17T23:52:45.530Z,18.10
2018-08-17T23:55:15.949Z,18.00
2018-08-17T23:57:44.289Z,17.70
